Time;durP1;ratioP1;P1;durP2;ratioP2;P2;SDS_P1;SDS_P2;PMS_P1;PMS_P2;Temp;Humidity;BMP_temperature;BMP_pressure;BME280_temperature;BME280_humidity;BME280_pressure;Samples;Min_cycle;Max_cycle;Signal;HPM_P1;HPM_P2
2023/06/07 00:01:18;;;;;;;;;;;;;;;-144.99;93.95;52211.66;5006602;28;19943;-63
2023/06/07 00:03:48;;;;;;;;;;;;;;;-144.99;94.04;52240.19;5005964;28;20407;-62
2023/06/07 00:06:15;;;;;;;;;;;;;;;-144.99;93.93;52207.59;5013706;28;20513;-62
2023/06/07 00:08:43;;;;;;;;;;;;;;;-144.99;94.08;52240.19;5009371;28;19992;-62
2023/06/07 00:11:10;;;;;;;;;;;;;;;-144.99;94.57;52191.28;5018287;28;20114;-62
2023/06/07 00:13:36;;;;;;;;;;;;;;;-144.99;94.59;52211.66;5011364;28;19941;-62
2023/06/07 00:16:03;;;;;;;;;;;;;;;-144.99;94.68;52146.44;5006976;28;19967;-62
2023/06/07 00:18:30;;;;;;;;;;;;;;;-144.99;94.43;52227.97;5003835;28;19957;-62
2023/06/07 00:20:57;;;;;;;;;;;;;;;-144.99;94.82;52191.28;5000924;28;20281;-63
2023/06/07 00:23:28;;;;;;;;;;;;;;;-144.99;94.80;52232.03;4999274;28;19974;-67
2023/06/07 00:25:59;;;;;;;;;;;;;;;-144.99;94.60;52170.91;4995444;28;19944;-66
2023/06/07 00:28:26;;;;;;;;;;;;;;;-144.99;94.96;52219.81;4991314;28;19990;-65
2023/06/07 00:30:52;;;;;;;;;;;;;;;-144.99;95.02;52203.50;4993920;28;20949;-65
2023/06/07 00:33:20;;;;;;;;;;;;;;;-144.99;95.15;52174.97;4991417;28;21651;-67
2023/06/07 00:35:47;;;;;;;;;;;;;;;-144.99;95.05;52203.50;4992834;28;19966;-64
2023/06/07 00:38:13;;;;;;;;;;;;;;;-144.99;95.14;52203.50;4993670;28;19948;-61
2023/06/07 00:40:40;;;;;;;;;;;;;;;-144.99;95.16;52193.31;4991875;28;20281;-62
2023/06/07 00:43:08;;;;;;;;;;;;;;;-144.99;95.22;52207.59;4992059;28;20410;-63
2023/06/07 00:45:35;;;;;;;;;;;;;;;-144.99;95.13;52227.97;4994066;28;19939;-63
2023/06/07 00:48:02;;;;;;;;;;;;;;;-144.99;95.40;52223.88;4996545;28;19953;-66
2023/06/07 00:50:29;;;;;;;;;;;;;;;-144.99;95.41;52223.88;5007497;28;19960;-67
2023/06/07 00:52:56;;;;;;;;;;;;;;;-144.99;96.07;52203.50;5003407;28;19936;-68
2023/06/07 00:55:22;;;;;;;;;;;;;;;-144.99;96.92;52240.19;5001305;28;20000;-68
2023/06/07 00:57:49;;;;;;;;;;;;;;;-144.99;96.47;52244.28;5006681;28;19949;-68
2023/06/07 01:00:18;;;;;;;;;;;;;;;-144.99;96.04;52219.81;4998509;28;20385;-70
2023/06/07 01:02:46;;;;;;;;;;;;;;;-144.99;96.57;52242.22;5002759;28;19944;-70
2023/06/07 01:05:13;;;;;;;;;;;;;;;-144.99;96.33;52199.44;5006240;28;19948;-70
2023/06/07 01:07:39;;;;;;;;;;;;;;;-144.99;96.45;52236.13;5002101;28;20333;-72
2023/06/07 01:10:08;;;;;;;;;;;;;;;-144.99;96.66;52238.16;5001869;28;19957;-69
2023/06/07 01:12:35;;;;;;;;;;;;;;;-144.99;96.59;52213.69;5001171;28;19937;-69
2023/06/07 01:15:02;;;;;;;;;;;;;;;-144.99;96.19;52223.88;4995611;28;20486;-68
2023/06/07 01:17:31;;;;;;;;;;;;;;;-144.99;96.83;52197.41;4997493;28;19942;-69
2023/06/07 01:19:59;;;;;;;;;;;;;;;-144.99;96.98;52219.81;4996690;28;20424;-68
2023/06/07 01:22:28;;;;;;;;;;;;;;;-144.99;96.90;52227.97;5004511;28;19937;-73
2023/06/07 01:24:56;;;;;;;;;;;;;;;-144.99;97.12;52236.13;4997682;28;20029;-73
2023/06/07 01:27:27;;;;;;;;;;;;;;;-144.99;96.45;52248.34;4998456;28;20340;-71
2023/06/07 01:29:54;;;;;;;;;;;;;;;-144.99;96.37;52209.63;4999719;28;20321;-71
2023/06/07 01:32:21;;;;;;;;;;;;;;;-144.99;96.81;52207.59;5005317;28;19946;-72
2023/06/07 01:34:49;;;;;;;;;;;;;;;-144.99;96.91;52187.19;5008658;28;19951;-71
2023/06/07 01:37:15;;;;;;;;;;;;;;;-144.99;96.56;52268.72;5006631;28;19957;-72
2023/06/07 01:39:42;;;;;;;;;;;;;;;-144.99;96.43;52199.44;5002294;28;20061;-72
2023/06/07 01:42:11;;;;;;;;;;;;;;;-144.99;96.45;52244.28;5000360;28;19945;-73
2023/06/07 01:44:38;;;;;;;;;;;;;;;-144.99;96.73;52256.50;5006887;28;20466;-72
2023/06/07 01:47:05;;;;;;;;;;;;;;;-144.99;96.90;52254.47;5012231;28;19947;-75
2023/06/07 01:49:32;;;;;;;;;;;;;;;-144.99;96.85;52236.13;5013196;28;19966;-74
2023/06/07 01:51:59;;;;;;;;;;;;;;;-144.99;96.59;52215.75;5000517;28;19936;-74
2023/06/07 01:54:26;;;;;;;;;;;;;;;-144.99;96.68;52227.97;4997932;28;20397;-74
2023/06/07 01:57:03;;;;;;;;;;;;;;;-144.99;97.22;52223.88;4997149;28;20023;-76
2023/06/07 01:59:35;;;;;;;;;;;;;;;-144.99;98.35;52223.88;4995447;28;19957;-75
2023/06/07 02:02:05;;;;;;;;;;;;;;;-144.99;98.72;52211.66;4996403;28;19944;-74
2023/06/07 02:04:33;;;;;;;;;;;;;;;-144.99;97.78;52232.03;4996670;28;20942;-73
2023/06/07 02:07:01;;;;;;;;;;;;;;;-144.99;98.13;52266.69;4997446;28;19948;-72
2023/06/07 02:09:29;;;;;;;;;;;;;;;-144.99;97.53;52242.22;5005588;28;19966;-71
2023/06/07 02:11:56;;;;;;;;;;;;;;;-144.99;97.47;52236.13;5007854;28;19944;-72
2023/06/07 02:14:23;;;;;;;;;;;;;;;-144.99;97.12;52215.75;5006521;28;19950;-74
2023/06/07 02:16:51;;;;;;;;;;;;;;;-144.99;97.01;52201.47;5001574;28;19942;-74
2023/06/07 02:19:19;;;;;;;;;;;;;;;-144.99;97.03;52254.47;4995327;28;20060;-70
2023/06/07 02:21:45;;;;;;;;;;;;;;;-144.99;97.12;52227.97;4996254;28;19948;-71
2023/06/07 02:24:12;;;;;;;;;;;;;;;-144.99;97.13;52248.34;4997653;28;19948;-72
2023/06/07 02:26:39;;;;;;;;;;;;;;;-144.99;97.03;52211.66;4998819;28;20449;-72
2023/06/07 02:29:05;;;;;;;;;;;;;;;-144.99;96.80;52199.44;4996062;28;19973;-72
2023/06/07 02:31:32;;;;;;;;;;;;;;;-144.99;97.05;52236.13;4999758;28;19940;-72
2023/06/07 02:34:00;;;;;;;;;;;;;;;-144.99;97.06;52225.94;4995420;28;20393;-72
2023/06/07 02:36:32;;;;;;;;;;;;;;;-144.99;97.22;52236.13;4997550;28;19933;-73
2023/06/07 02:38:59;;;;;;;;;;;;;;;-144.99;97.91;52283.00;4999691;28;19951;-71
2023/06/07 02:41:25;;;;;;;;;;;;;;;-144.99;97.04;52227.97;4994241;28;20421;-65
2023/06/07 02:43:52;;;;;;;;;;;;;;;-144.99;96.96;52219.81;4991318;28;19947;-66
2023/06/07 02:46:19;;;;;;;;;;;;;;;-144.99;96.73;52227.97;4993151;28;19954;-65
2023/06/07 02:48:45;;;;;;;;;;;;;;;-144.99;96.83;52215.75;4998753;28;20352;-65
2023/06/07 02:51:13;;;;;;;;;;;;;;;-144.99;97.79;52223.88;5005639;28;19960;-65
2023/06/07 02:53:40;;;;;;;;;;;;;;;-144.99;98.26;52223.88;5015758;28;19932;-64
2023/06/07 02:56:07;;;;;;;;;;;;;;;-144.99;98.95;52236.13;5014799;28;19938;-65
2023/06/07 02:58:34;;;;;;;;;;;;;;;-144.99;100.00;52244.28;4998315;28;19964;-71
2023/06/07 03:01:02;;;;;;;;;;;;;;;-144.99;100.00;52248.34;5013751;28;19939;-68
2023/06/07 03:03:28;;;;;;;;;;;;;;;-144.99;99.31;52258.53;5007254;28;19947;-68
2023/06/07 03:05:59;;;;;;;;;;;;;;;-144.99;98.52;52236.13;5027309;28;20345;-68
2023/06/07 03:08:27;;;;;;;;;;;;;;;-144.99;97.74;52215.75;5008909;28;19969;-67
2023/06/07 03:10:54;;;;;;;;;;;;;;;-144.99;97.92;52244.28;5014396;28;19941;-68
2023/06/07 03:13:20;;;;;;;;;;;;;;;-144.99;97.81;52219.81;5013863;28;20040;-68
2023/06/07 03:15:47;;;;;;;;;;;;;;;-144.99;97.85;52260.56;5018488;28;19936;-68
2023/06/07 03:18:15;;;;;;;;;;;;;;;-144.99;97.64;52223.88;5005047;28;20029;-68
2023/06/07 03:20:42;;;;;;;;;;;;;;;-144.99;97.74;52276.88;5009380;28;19944;-68
2023/06/07 03:23:09;;;;;;;;;;;;;;;-144.99;97.53;52236.13;5019925;28;19943;-68
2023/06/07 03:25:37;;;;;;;;;;;;;;;-144.99;97.79;52254.47;5010583;28;20277;-67
2023/06/07 03:28:04;;;;;;;;;;;;;;;-144.99;98.33;52244.28;5017347;28;19945;-68
2023/06/07 03:30:30;;;;;;;;;;;;;;;-144.99;98.33;52205.53;5011177;28;20355;-67
2023/06/07 03:32:57;;;;;;;;;;;;;;;-144.99;98.13;52227.97;5013998;28;19940;-67
2023/06/07 03:35:24;;;;;;;;;;;;;;;-144.99;98.09;52203.50;5000043;28;19945;-67
2023/06/07 03:37:51;;;;;;;;;;;;;;;-144.99;98.38;52256.50;4999024;28;20410;-68
2023/06/07 03:40:17;;;;;;;;;;;;;;;-144.99;98.90;52240.19;5000731;28;19963;-68
2023/06/07 03:42:45;;;;;;;;;;;;;;;-144.99;99.05;52236.13;4995824;28;20399;-67
2023/06/07 03:45:12;;;;;;;;;;;;;;;-144.99;99.81;52209.63;5004466;28;19950;-67
2023/06/07 03:47:40;;;;;;;;;;;;;;;-144.99;100.00;52223.88;5006287;28;19941;-68
2023/06/07 03:50:07;;;;;;;;;;;;;;;-144.99;100.00;52221.84;5006172;28;20015;-67
2023/06/07 03:52:33;;;;;;;;;;;;;;;-144.99;100.00;52252.44;5005186;28;20300;-71
2023/06/07 03:55:00;;;;;;;;;;;;;;;-144.99;99.29;52211.66;5004573;28;20384;-71
2023/06/07 03:57:26;;;;;;;;;;;;;;;-144.99;97.16;52183.13;5005622;28;20279;-71
2023/06/07 03:59:55;;;;;;;;;;;;;;;-144.99;96.34;52170.91;5005642;28;19956;-69
2023/06/07 04:02:21;;;;;;;;;;;;;;;-144.99;96.33;52211.66;4999485;28;20423;-69
2023/06/07 04:04:49;;;;;;;;;;;;;;;-144.99;96.06;52207.59;5000198;28;20389;-68
2023/06/07 04:07:16;;;;;;;;;;;;;;;-144.99;95.98;52195.34;5007676;28;20382;-69
2023/06/07 04:09:43;;;;;;;;;;;;;;;-144.99;95.97;52207.59;5005809;28;20019;-70
2023/06/07 04:12:10;;;;;;;;;;;;;;;-144.99;96.21;52207.59;5006068;28;19944;-68
2023/06/07 04:14:36;;;;;;;;;;;;;;;-144.99;96.00;52223.88;5004262;28;19939;-66
2023/06/07 04:17:05;;;;;;;;;;;;;;;-144.99;95.94;52215.75;4994925;28;20316;-65
2023/06/07 04:19:32;;;;;;;;;;;;;;;-144.99;95.44;52203.50;4990990;28;19970;-66
2023/06/07 04:21:58;;;;;;;;;;;;;;;-144.99;95.46;52213.69;4994444;28;19948;-67
2023/06/07 04:24:25;;;;;;;;;;;;;;;-144.99;95.46;52219.81;4996162;28;19986;-68
2023/06/07 04:26:53;;;;;;;;;;;;;;;-144.99;95.35;52209.63;4995133;28;19965;-70
2023/06/07 04:29:21;;;;;;;;;;;;;;;-144.99;95.63;52236.13;4994718;28;20081;-67
2023/06/07 04:31:49;;;;;;;;;;;;;;;-144.99;96.03;52191.28;5017446;28;20304;-66
2023/06/07 04:34:17;;;;;;;;;;;;;;;-144.99;96.26;52183.13;5004232;28;19988;-67
2023/06/07 04:36:49;;;;;;;;;;;;;;;-144.99;96.31;52219.81;4997252;28;19948;-67
2023/06/07 04:39:15;;;;;;;;;;;;;;;-144.99;96.14;52213.69;5003914;28;19960;-66
2023/06/07 04:41:42;;;;;;;;;;;;;;;-144.99;96.29;52219.81;5008766;28;20415;-67
2023/06/07 04:44:11;;;;;;;;;;;;;;;-144.99;96.19;52203.50;5006432;28;19994;-66
2023/06/07 04:46:39;;;;;;;;;;;;;;;-144.99;95.75;52185.16;5004355;28;20219;-66
2023/06/07 04:49:06;;;;;;;;;;;;;;;-144.99;95.48;52207.59;5003314;28;20061;-65
2023/06/07 04:51:36;;;;;;;;;;;;;;;-144.99;95.71;52223.88;4996936;28;20383;-67
2023/06/07 04:54:04;;;;;;;;;;;;;;;-144.99;95.68;52172.94;4994996;28;20413;-66
2023/06/07 04:56:31;;;;;;;;;;;;;;;-144.99;95.42;52195.34;4994548;28;19941;-62
2023/06/07 04:58:58;;;;;;;;;;;;;;;-144.99;94.68;52215.75;4992121;28;20239;-60
2023/06/07 05:01:25;;;;;;;;;;;;;;;-144.99;94.01;52215.75;4994280;28;19949;-61
2023/06/07 05:03:58;;;;;;;;;;;;;;;-144.99;93.49;52201.47;4993755;28;19960;-61
2023/06/07 05:06:25;;;;;;;;;;;;;;;-144.99;92.57;52203.50;4995381;28;19948;-62
2023/06/07 05:08:53;;;;;;;;;;;;;;;-144.99;92.17;52227.97;4994345;28;19959;-61
2023/06/07 05:11:19;;;;;;;;;;;;;;;-144.99;92.00;52223.88;4657285;28;10000257;-60
2023/06/07 05:13:46;;;;;;;;;;;;;;;-144.99;92.40;52215.75;5008599;28;19948;-64
2023/06/07 05:16:16;;;;;;;;;;;;;;;-144.99;92.08;52174.97;5006847;28;19949;-65
2023/06/07 05:18:42;;;;;;;;;;;;;;;-144.99;91.33;52207.59;5003259;28;19929;-64
2023/06/07 05:21:09;;;;;;;;;;;;;;;-144.99;91.18;52211.66;5001569;28;19949;-64
2023/06/07 05:23:36;;;;;;;;;;;;;;;-144.99;90.83;52179.06;5012248;28;19940;-64
2023/06/07 05:26:04;;;;;;;;;;;;;;;-144.99;90.81;52227.97;5005403;28;19947;-64
2023/06/07 05:28:30;;;;;;;;;;;;;;;-144.99;90.81;52197.41;5007306;28;19971;-64
2023/06/07 05:30:58;;;;;;;;;;;;;;;-144.99;90.23;52199.44;5004868;28;20456;-64
2023/06/07 05:33:27;;;;;;;;;;;;;;;-144.99;90.18;52215.75;5003023;28;20006;-64
2023/06/07 05:35:54;;;;;;;;;;;;;;;-144.99;90.23;52174.97;5003990;28;19994;-63
2023/06/07 05:38:21;;;;;;;;;;;;;;;-144.99;89.91;52166.81;5003911;28;19945;-63
2023/06/07 05:40:47;;;;;;;;;;;;;;;-144.99;89.35;52197.41;5004610;28;20059;-64
2023/06/07 05:43:15;;;;;;;;;;;;;;;-144.99;89.04;52164.78;5000772;28;20557;-63
2023/06/07 05:45:42;;;;;;;;;;;;;;;-144.99;89.23;52211.66;5004794;28;19936;-64
2023/06/07 05:48:09;;;;;;;;;;;;;;;-144.99;87.72;52199.44;5003513;28;20040;-63
2023/06/07 05:50:35;;;;;;;;;;;;;;;-144.99;87.74;52215.75;5004564;28;19957;-63
2023/06/07 05:53:02;;;;;;;;;;;;;;;-144.99;87.79;52170.91;5003670;28;19944;-63
2023/06/07 05:55:29;;;;;;;;;;;;;;;-144.99;87.31;52187.19;5004679;28;20027;-63
2023/06/07 05:57:57;;;;;;;;;;;;;;;-144.99;88.25;52185.16;5005476;28;19951;-63
2023/06/07 06:00:25;;;;;;;;;;;;;;;-144.99;90.26;52211.66;5007119;28;20247;-63
2023/06/07 06:02:52;;;;;;;;;;;;;;;-144.99;88.38;52187.19;5011498;28;20475;-64
2023/06/07 06:05:20;;;;;;;;;;;;;;;-144.99;87.66;52199.44;5007790;28;20171;-63
2023/06/07 06:07:47;;;;;;;;;;;;;;;-144.99;88.21;52195.34;5011331;28;19946;-63
2023/06/07 06:10:13;;;;;;;;;;;;;;;-144.99;90.23;52232.03;5005561;28;20012;-63
2023/06/07 06:12:40;;;;;;;;;;;;;;;-144.99;89.17;52179.06;5007380;28;20266;-63
2023/06/07 06:15:07;;;;;;;;;;;;;;;-144.99;90.61;52193.31;5014817;28;19941;-63
2023/06/07 06:17:35;;;;;;;;;;;;;;;-144.99;90.05;52197.41;5008303;28;19948;-63
2023/06/07 06:20:02;;;;;;;;;;;;;;;-144.99;89.84;52205.53;5014403;28;20055;-63
2023/06/07 06:22:29;;;;;;;;;;;;;;;-144.99;90.96;52158.66;5014592;28;19948;-63
2023/06/07 06:24:57;;;;;;;;;;;;;;;-144.99;87.92;52183.13;5011871;28;19948;-63
2023/06/07 06:27:23;;;;;;;;;;;;;;;-144.99;89.60;52174.97;5017304;28;19959;-63
2023/06/07 06:29:50;;;;;;;;;;;;;;;-144.99;89.41;52201.47;5011115;28;19938;-64
2023/06/07 06:32:17;;;;;;;;;;;;;;;-144.99;89.66;52154.59;5011375;28;20188;-63
2023/06/07 06:34:45;;;;;;;;;;;;;;;-144.99;89.21;52219.81;5010881;28;19963;-63
2023/06/07 06:37:12;;;;;;;;;;;;;;;-144.99;88.07;52191.28;5010841;28;19949;-63
2023/06/07 06:39:38;;;;;;;;;;;;;;;-144.99;87.56;52221.84;5008242;28;19956;-63
2023/06/07 06:42:05;;;;;;;;;;;;;;;-144.99;87.00;52170.91;5006796;28;19940;-63
2023/06/07 06:44:32;;;;;;;;;;;;;;;-144.99;86.22;52191.28;5002599;28;20029;-64
2023/06/07 06:47:00;;;;;;;;;;;;;;;-144.99;85.52;52166.81;5005361;28;20048;-64
2023/06/07 06:49:26;;;;;;;;;;;;;;;-144.99;85.14;52187.19;5012162;28;19973;-65
2023/06/07 06:51:54;;;;;;;;;;;;;;;-144.99;84.28;52166.81;5004905;28;20394;-64
2023/06/07 06:54:22;;;;;;;;;;;;;;;-144.99;83.34;52154.59;4658298;28;10000299;-64
2023/06/07 06:56:48;;;;;;;;;;;;;;;-144.99;83.99;52170.91;5003652;28;19930;-65
2023/06/07 06:59:15;;;;;;;;;;;;;;;-144.99;83.72;52156.63;5000529;28;20131;-64
2023/06/07 07:01:46;;;;;;;;;;;;;;;-144.99;83.57;52142.38;5002833;28;19966;-64
2023/06/07 07:04:13;;;;;;;;;;;;;;;-144.99;82.82;52199.44;5002831;28;20075;-64
2023/06/07 07:06:40;;;;;;;;;;;;;;;-144.99;83.54;52168.84;5002725;28;19941;-64
2023/06/07 07:09:09;;;;;;;;;;;;;;;-144.99;84.10;52174.97;5002096;28;19963;-64
2023/06/07 07:11:35;;;;;;;;;;;;;;;-144.99;83.52;52158.66;4998894;28;19960;-64
2023/06/07 07:14:02;;;;;;;;;;;;;;;-144.99;83.56;52154.59;5001517;28;19957;-64
2023/06/07 07:16:29;;;;;;;;;;;;;;;-144.99;82.72;52211.66;5002438;28;19944;-64
2023/06/07 07:18:56;;;;;;;;;;;;;;;-144.99;82.33;52172.94;5002356;28;19938;-64
2023/06/07 07:21:23;;;;;;;;;;;;;;;-144.99;82.09;52174.97;5003096;28;19970;-64
2023/06/07 07:23:49;;;;;;;;;;;;;;;-144.99;81.38;52174.97;5003027;28;19968;-64
2023/06/07 07:26:17;;;;;;;;;;;;;;;-144.99;80.48;52130.13;5002619;28;19947;-64
2023/06/07 07:28:44;;;;;;;;;;;;;;;-144.99;79.11;52117.91;5005352;28;19936;-65
2023/06/07 07:31:11;;;;;;;;;;;;;;;-144.99;78.55;52146.44;5001934;28;20239;-64
2023/06/07 07:33:39;;;;;;;;;;;;;;;-144.99;80.00;52166.81;5006870;28;19957;-65
2023/06/07 07:36:07;;;;;;;;;;;;;;;-144.99;79.96;52166.81;4999068;28;19955;-64
2023/06/07 07:38:37;;;;;;;;;;;;;;;-144.99;80.25;52170.91;5002854;28;20387;-65
2023/06/07 07:41:04;;;;;;;;;;;;;;;-144.99;79.62;52158.66;5001990;28;19929;-66
2023/06/07 07:43:32;;;;;;;;;;;;;;;-144.99;79.68;52170.91;5001711;28;19940;-64
2023/06/07 07:45:59;;;;;;;;;;;;;;;-144.99;79.30;52134.22;5002871;28;19942;-64
2023/06/07 07:48:25;;;;;;;;;;;;;;;-144.99;78.85;52158.66;4999437;28;20055;-65
2023/06/07 07:50:52;;;;;;;;;;;;;;;-144.99;78.52;52154.59;4999943;28;19964;-64
2023/06/07 07:53:19;;;;;;;;;;;;;;;-144.99;78.34;52160.72;5003985;28;19963;-64
2023/06/07 07:55:46;;;;;;;;;;;;;;;-144.99;77.97;52146.44;5006976;28;20723;-64
2023/06/07 07:58:12;;;;;;;;;;;;;;;-144.99;77.50;52154.59;5001876;28;19929;-64
2023/06/07 08:00:41;;;;;;;;;;;;;;;-144.99;78.60;52166.81;5011276;28;19928;-64
2023/06/07 08:03:09;;;;;;;;;;;;;;;-144.99;78.37;52152.56;5002573;28;20291;-65
2023/06/07 08:05:35;;;;;;;;;;;;;;;-144.99;77.89;52146.44;5004623;28;19940;-65
2023/06/07 08:08:02;;;;;;;;;;;;;;;-144.99;77.78;52134.22;5009619;28;19956;-65
2023/06/07 08:10:29;;;;;;;;;;;;;;;-144.99;77.34;52126.06;5005365;28;20358;-65
2023/06/07 08:12:55;;;;;;;;;;;;;;;-144.99;76.61;52113.84;5006706;28;19952;-65
2023/06/07 08:15:22;;;;;;;;;;;;;;;-144.99;75.21;52105.69;5004879;28;19925;-66
2023/06/07 08:17:50;;;;;;;;;;;;;;;-144.99;76.24;52119.94;5006382;28;20385;-66
2023/06/07 08:20:17;;;;;;;;;;;;;;;-144.99;77.00;52117.91;5010977;28;20302;-66
2023/06/07 08:22:43;;;;;;;;;;;;;;;-144.99;75.29;52113.84;5006190;28;19929;-66
2023/06/07 08:25:10;;;;;;;;;;;;;;;-144.99;74.39;52093.44;5005718;28;20344;-66
2023/06/07 08:27:37;;;;;;;;;;;;;;;-144.99;74.00;52113.84;5011063;28;19926;-66
2023/06/07 08:30:05;;;;;;;;;;;;;;;-144.99;73.11;52097.53;5003034;28;19934;-66
2023/06/07 08:32:32;;;;;;;;;;;;;;;-144.99;73.50;52081.22;5013972;28;19929;-66
2023/06/07 08:35:00;;;;;;;;;;;;;;;-144.99;73.09;52060.84;5006342;28;19968;-67
2023/06/07 08:37:27;;;;;;;;;;;;;;;-144.99;72.65;52095.50;5005921;28;20367;-66
2023/06/07 08:39:53;;;;;;;;;;;;;;;-144.99;73.68;52089.38;5003127;28;20354;-66
2023/06/07 08:42:20;;;;;;;;;;;;;;;-144.99;74.46;52101.59;5005390;28;19925;-66
2023/06/07 08:44:47;;;;;;;;;;;;;;;-144.99;74.26;52117.91;5012230;28;19929;-66
2023/06/07 08:47:14;;;;;;;;;;;;;;;-144.99;74.48;52109.75;5008089;28;19933;-67
2023/06/07 08:49:41;;;;;;;;;;;;;;;-144.99;73.53;52119.94;5005621;28;19929;-66
2023/06/07 08:52:10;;;;;;;;;;;;;;;-144.99;74.06;52150.53;5003342;28;19929;-66
2023/06/07 08:54:41;;;;;;;;;;;;;;;-144.99;73.06;52060.84;5004963;28;19936;-65
2023/06/07 08:57:08;;;;;;;;;;;;;;;-144.99;72.01;52091.41;5002307;28;19944;-65
2023/06/07 08:59:36;;;;;;;;;;;;;;;-144.99;71.60;52036.38;5003966;28;20185;-64
2023/06/07 09:02:03;;;;;;;;;;;;;;;-144.99;71.83;52130.13;5004415;28;20076;-65
2023/06/07 09:04:30;;;;;;;;;;;;;;;-144.99;71.64;52058.81;5005070;28;20310;-64
2023/06/07 09:06:57;;;;;;;;;;;;;;;-144.99;72.39;52081.22;5006927;28;19936;-66
2023/06/07 09:09:25;;;;;;;;;;;;;;;-144.99;72.24;52073.06;5004592;28;19929;-72
2023/06/07 09:11:52;;;;;;;;;;;;;;;-144.99;72.15;52093.44;5003974;28;19930;-66
2023/06/07 09:14:19;;;;;;;;;;;;;;;-144.99;72.12;52064.91;5003586;28;20292;-66
2023/06/07 09:16:53;;;;;;;;;;;;;;;-144.99;71.71;52081.22;5005256;28;19934;-66
2023/06/07 09:19:30;;;;;;;;;;;;;;;-144.99;71.58;52046.56;5006955;28;19979;-66
2023/06/07 09:21:57;;;;;;;;;;;;;;;-144.99;71.07;52052.69;5004110;28;20385;-66
2023/06/07 09:24:28;;;;;;;;;;;;;;;-144.99;70.13;52048.63;5004019;28;19930;-66
2023/06/07 09:26:55;;;;;;;;;;;;;;;-144.99;70.37;52062.88;5009215;28;19933;-66
2023/06/07 09:29:22;;;;;;;;;;;;;;;-144.99;69.51;52060.84;5001624;28;20020;-64
2023/06/07 09:31:49;;;;;;;;;;;;;;;-144.99;68.10;52044.53;5036780;28;19933;-64
2023/06/07 09:34:26;;;;;;;;;;;;;;;-144.99;67.88;52020.09;5004971;28;20462;-65
2023/06/07 09:36:53;;;;;;;;;;;;;;;-144.99;67.93;52003.78;5005387;28;19933;-65
2023/06/07 09:39:21;;;;;;;;;;;;;;;-144.99;67.79;52048.63;5002647;28;19930;-65
2023/06/07 09:41:50;;;;;;;;;;;;;;;-144.99;68.00;52083.25;5005313;28;20378;-65
2023/06/07 09:44:23;;;;;;;;;;;;;;;-144.99;68.50;52085.31;5005101;28;19929;-65
2023/06/07 09:46:50;;;;;;;;;;;;;;;-144.99;68.64;52024.16;5005620;28;19964;-65
2023/06/07 09:49:22;;;;;;;;;;;;;;;-144.99;68.46;52036.38;5003465;28;19937;-65
2023/06/07 09:51:52;;;;;;;;;;;;;;;-144.99;68.83;52069.00;5004184;28;19933;-65
2023/06/07 09:54:19;;;;;;;;;;;;;;;-144.99;68.82;52064.91;5002246;28;19929;-64
2023/06/07 09:56:46;;;;;;;;;;;;;;;-144.99;68.03;52032.31;5004606;28;20470;-64
2023/06/07 09:59:16;;;;;;;;;;;;;;;-144.99;68.36;52052.69;4999459;28;19940;-64
2023/06/07 10:01:45;;;;;;;;;;;;;;;-144.99;69.02;52077.16;5003512;28;20304;-65
2023/06/07 10:04:12;;;;;;;;;;;;;;;-144.99;68.75;52036.38;5019521;28;19929;-65
2023/06/07 10:06:40;;;;;;;;;;;;;;;-144.99;69.13;52024.16;5004374;28;20032;-64
2023/06/07 10:09:07;;;;;;;;;;;;;;;-144.99;68.18;52003.78;4999525;28;20262;-65
2023/06/07 10:11:36;;;;;;;;;;;;;;;-144.99;66.67;52024.16;5002914;28;20447;-64
2023/06/07 10:14:06;;;;;;;;;;;;;;;-144.99;66.43;52036.38;4999511;28;19937;-65
2023/06/07 10:16:36;;;;;;;;;;;;;;;-144.99;66.29;52028.22;5005037;28;19929;-66
2023/06/07 10:19:05;;;;;;;;;;;;;;;-144.99;66.13;52028.22;5003168;28;20300;-65
2023/06/07 10:21:35;;;;;;;;;;;;;;;-144.99;65.83;51995.63;5001637;28;19930;-65
2023/06/07 10:24:05;;;;;;;;;;;;;;;-144.99;65.43;51958.94;5004285;28;19934;-66
2023/06/07 10:26:36;;;;;;;;;;;;;;;-144.99;64.93;51979.31;5004478;28;19929;-66
2023/06/07 10:29:07;;;;;;;;;;;;;;;-144.99;64.94;52016.00;4999511;28;19929;-66
2023/06/07 10:31:38;;;;;;;;;;;;;;;-144.99;64.92;51991.56;5001298;28;19933;-66
2023/06/07 10:34:07;;;;;;;;;;;;;;;-144.99;64.23;51963.03;5004266;28;19935;-66
2023/06/07 10:36:36;;;;;;;;;;;;;;;-144.99;63.80;52030.28;5004478;28;20016;-66
2023/06/07 10:39:03;;;;;;;;;;;;;;;-144.99;64.89;52007.84;5002221;28;19930;-66
2023/06/07 10:41:30;;;;;;;;;;;;;;;-144.99;64.13;52003.78;5004703;28;19968;-66
2023/06/07 10:43:57;;;;;;;;;;;;;;;-144.99;63.92;51999.69;5006302;28;19929;-66
2023/06/07 10:46:24;;;;;;;;;;;;;;;-144.99;63.56;51983.41;5004589;28;19933;-66
2023/06/07 10:48:52;;;;;;;;;;;;;;;-144.99;63.17;51967.09;5005716;28;20291;-67
2023/06/07 10:51:39;;;;;;;;;;;;;;;-144.99;63.06;51979.31;5003481;28;19929;-66
2023/06/07 10:54:06;;;;;;;;;;;;;;;-144.99;62.87;51958.94;5003236;28;19929;-66
2023/06/07 10:56:33;;;;;;;;;;;;;;;-144.99;62.67;51956.91;5004056;28;19929;-67
2023/06/07 10:59:15;;;;;;;;;;;;;;;-144.99;62.42;51987.47;5000959;28;19929;-67
2023/06/07 11:01:43;;;;;;;;;;;;;;;-144.99;63.27;52007.84;5014789;28;19939;-67
2023/06/07 11:04:35;;;;;;;;;;;;;;;-144.99;62.83;51963.03;5003505;28;20710;-66
2023/06/07 11:07:17;;;;;;;;;;;;;;;-144.99;62.83;51999.69;4999103;28;19933;-66
2023/06/07 11:09:46;;;;;;;;;;;;;;;-144.99;62.46;51954.88;4999731;28;20140;-66
2023/06/07 11:12:28;;;;;;;;;;;;;;;-144.99;63.39;52036.38;5003099;28;20303;-67
2023/06/07 11:15:13;;;;;;;;;;;;;;;-144.99;63.49;51987.47;4996112;28;20066;-67
2023/06/07 11:17:49;;;;;;;;;;;;;;;-144.99;63.09;51954.88;5004470;28;19933;-67
2023/06/07 11:20:38;;;;;;;;;;;;;;;-144.99;62.47;51965.06;5001706;28;19936;-67
2023/06/07 11:23:23;;;;;;;;;;;;;;;-144.99;61.11;51967.09;5001668;28;20029;-66
2023/06/07 11:25:51;;;;;;;;;;;;;;;-144.99;61.11;51991.56;5003559;28;19930;-66
2023/06/07 11:28:21;;;;;;;;;;;;;;;-144.99;61.14;52003.78;5004453;28;19929;-66
2023/06/07 11:30:48;;;;;;;;;;;;;;;-144.99;61.65;51991.56;5003586;28;20420;-66
2023/06/07 11:33:16;;;;;;;;;;;;;;;-144.99;61.46;51981.38;5001460;28;19929;-66
2023/06/07 11:35:44;;;;;;;;;;;;;;;-144.99;61.63;51975.25;5004169;28;20210;-66
2023/06/07 11:38:10;;;;;;;;;;;;;;;-144.99;60.79;51963.03;5002582;28;19937;-66
2023/06/07 11:40:37;;;;;;;;;;;;;;;-144.99;60.77;51926.34;5004128;28;20186;-66
2023/06/07 11:43:04;;;;;;;;;;;;;;;-144.99;60.49;51971.16;4999099;28;19930;-67
2023/06/07 11:45:32;;;;;;;;;;;;;;;-144.99;61.09;51938.56;5003249;28;19940;-66
2023/06/07 11:48:01;;;;;;;;;;;;;;;-144.99;61.45;51930.41;5004993;28;19936;-67
2023/06/07 11:50:28;;;;;;;;;;;;;;;-144.99;62.21;52007.84;5003502;28;19933;-67
2023/06/07 11:52:56;;;;;;;;;;;;;;;-144.99;62.28;52016.00;5002097;28;19941;-66
2023/06/07 11:55:23;;;;;;;;;;;;;;;-144.99;61.77;51979.31;5003076;28;19948;-67
2023/06/07 11:57:52;;;;;;;;;;;;;;;-144.99;61.09;52003.78;5002314;28;19930;-68
2023/06/07 12:00:20;;;;;;;;;;;;;;;-144.99;61.16;51963.03;5004740;28;19925;-66
2023/06/07 12:02:47;;;;;;;;;;;;;;;-144.99;60.61;51975.25;5006728;28;19964;-66
2023/06/07 12:05:16;;;;;;;;;;;;;;;-144.99;60.77;51999.69;5006819;28;20417;-67
2023/06/07 12:07:43;;;;;;;;;;;;;;;-144.99;61.20;51995.63;5014296;28;20201;-66
2023/06/07 12:10:12;;;;;;;;;;;;;;;-144.99;60.74;51940.59;5002686;28;19972;-66
2023/06/07 12:12:39;;;;;;;;;;;;;;;-144.99;60.34;51944.69;5004732;28;19933;-66
2023/06/07 12:15:06;;;;;;;;;;;;;;;-144.99;60.59;51963.03;5003145;28;19935;-67
2023/06/07 12:17:35;;;;;;;;;;;;;;;-144.99;60.84;51975.25;5005294;28;20016;-67
2023/06/07 12:20:09;;;;;;;;;;;;;;;-144.99;60.64;51975.25;5001628;28;19957;-66
2023/06/07 12:22:36;;;;;;;;;;;;;;;-144.99;60.90;51979.31;5004067;28;19929;-66
2023/06/07 12:25:09;;;;;;;;;;;;;;;-144.99;61.13;51954.88;5006660;28;19941;-67
2023/06/07 12:27:38;;;;;;;;;;;;;;;-144.99;60.59;51975.25;5007946;28;20118;-67
2023/06/07 12:30:06;;;;;;;;;;;;;;;-144.99;60.59;51981.38;5005134;28;19929;-66